createdAt,value
2023-05-17T00:01:47.314Z,4.10
2023-05-17T00:04:14.262Z,4.20
2023-05-17T00:06:41.134Z,3.70
2023-05-17T00:09:08.540Z,4.10
2023-05-17T00:11:35.772Z,4.10
2023-05-17T00:14:03.431Z,3.60
2023-05-17T00:16:30.303Z,3.90
2023-05-17T00:18:57.365Z,3.60
2023-05-17T00:21:24.500Z,4.00
2023-05-17T00:23:51.371Z,3.10
2023-05-17T00:26:18.234Z,4.10
2023-05-17T00:28:45.354Z,3.80
2023-05-17T00:31:14.458Z,3.90
2023-05-17T00:33:41.366Z,3.80
2023-05-17T00:36:08.329Z,3.90
2023-05-17T00:38:35.480Z,3.80
2023-05-17T00:41:07.404Z,3.60
2023-05-17T00:43:35.174Z,3.70
2023-05-17T00:46:02.146Z,3.80
2023-05-17T00:48:29.335Z,3.80
2023-05-17T00:50:56.483Z,3.60
2023-05-17T00:53:23.623Z,3.60
2023-05-17T00:55:50.532Z,3.70
2023-05-17T00:58:17.652Z,3.30
2023-05-17T01:00:46.504Z,3.40
2023-05-17T01:03:13.914Z,3.70
2023-05-17T01:05:41.714Z,3.70
2023-05-17T01:08:08.840Z,3.70
2023-05-17T01:10:39.084Z,4.10
2023-05-17T01:13:29.125Z,3.80
2023-05-17T01:16:09.069Z,3.90
2023-05-17T01:18:40.316Z,3.60
2023-05-17T01:21:35.512Z,3.70
2023-05-17T01:24:26.848Z,3.70
2023-05-17T01:26:54.159Z,3.80
2023-05-17T01:29:27.245Z,3.80
2023-05-17T01:31:56.285Z,3.50
2023-05-17T01:34:25.874Z,3.70
2023-05-17T01:36:52.723Z,3.70
2023-05-17T01:39:19.650Z,3.60
2023-05-17T01:41:55.115Z,3.40
2023-05-17T01:44:47.224Z,3.40
2023-05-17T01:47:24.166Z,3.50
2023-05-17T01:49:57.778Z,3.50
2023-05-17T01:52:29.307Z,3.60
2023-05-17T01:55:10.358Z,3.80
2023-05-17T01:57:37.676Z,3.60
2023-05-17T02:00:09.682Z,3.40
2023-05-17T02:02:45.017Z,3.60
2023-05-17T02:05:12.135Z,4.10
2023-05-17T02:07:41.349Z,3.50
2023-05-17T02:10:13.689Z,3.60
2023-05-17T02:12:43.429Z,3.60
2023-05-17T02:15:11.503Z,3.80
2023-05-17T02:17:45.180Z,3.40
2023-05-17T02:20:12.448Z,3.70
2023-05-17T02:22:39.801Z,3.50
2023-05-17T02:25:12.586Z,4.40
2023-05-17T02:27:40.338Z,4.20
2023-05-17T02:30:09.973Z,3.70
2023-05-17T02:32:38.363Z,4.00
2023-05-17T02:35:07.108Z,3.90
2023-05-17T02:37:34.168Z,4.10
2023-05-17T02:40:01.028Z,3.60
2023-05-17T02:42:27.934Z,3.70
2023-05-17T02:44:57.437Z,3.70
2023-05-17T02:47:24.311Z,3.80
2023-05-17T02:49:51.637Z,3.50
2023-05-17T02:52:18.474Z,4.00
2023-05-17T02:54:45.420Z,4.00
2023-05-17T02:57:12.615Z,3.90
2023-05-17T02:59:39.434Z,3.80
2023-05-17T03:02:06.791Z,4.20
2023-05-17T03:04:33.691Z,4.00
2023-05-17T03:07:00.562Z,4.00
2023-05-17T03:09:29.756Z,3.80
2023-05-17T03:11:57.274Z,3.50
2023-05-17T03:14:27.697Z,3.80
2023-05-17T03:16:54.809Z,3.90
2023-05-17T03:19:23.018Z,4.00
2023-05-17T03:21:51.567Z,4.10
2023-05-17T03:24:23.716Z,3.30
2023-05-17T03:26:51.251Z,3.50
2023-05-17T03:29:18.165Z,3.60
2023-05-17T03:31:45.481Z,3.70
2023-05-17T03:34:13.255Z,4.00
2023-05-17T03:36:40.812Z,3.60
2023-05-17T03:39:08.463Z,4.00
2023-05-17T03:42:14.253Z,3.90
2023-05-17T03:44:42.000Z,3.60
2023-05-17T03:47:08.889Z,3.70
2023-05-17T03:49:36.112Z,3.70
2023-05-17T03:52:04.236Z,4.30
2023-05-17T03:54:31.561Z,4.40
2023-05-17T03:56:58.391Z,3.50
2023-05-17T03:59:25.414Z,4.10
2023-05-17T04:01:52.330Z,3.50
2023-05-17T04:04:19.390Z,3.60
2023-05-17T04:06:46.611Z,4.00
2023-05-17T04:09:15.058Z,3.70
2023-05-17T04:11:42.916Z,4.00
2023-05-17T04:14:17.562Z,3.00
2023-05-17T04:16:44.503Z,3.10
2023-05-17T04:19:11.352Z,3.40
2023-05-17T04:21:39.980Z,3.70
2023-05-17T04:24:07.167Z,3.60
2023-05-17T04:26:35.156Z,3.70
2023-05-17T04:29:03.198Z,3.80
2023-05-17T04:31:31.566Z,3.60
2023-05-17T04:33:58.456Z,3.20
2023-05-17T04:36:26.000Z,3.30
2023-05-17T04:38:53.992Z,3.30
2023-05-17T04:41:24.245Z,3.20
2023-05-17T04:43:51.512Z,3.40
2023-05-17T04:46:22.658Z,3.10
2023-05-17T04:48:49.842Z,3.40
2023-05-17T04:51:17.809Z,3.10
2023-05-17T04:53:45.295Z,3.40
2023-05-17T04:56:16.251Z,3.30
2023-05-17T04:58:43.606Z,3.70
2023-05-17T05:01:11.720Z,3.20
2023-05-17T05:03:39.778Z,3.60
2023-05-17T05:06:07.812Z,3.00
2023-05-17T05:08:35.182Z,3.60
2023-05-17T05:11:02.562Z,3.40
2023-05-17T05:13:29.992Z,3.30
2023-05-17T05:15:56.922Z,2.80
2023-05-17T05:18:24.809Z,3.80
2023-05-17T05:20:52.127Z,3.30
2023-05-17T05:23:19.273Z,2.60
2023-05-17T05:25:47.852Z,2.90
2023-05-17T05:28:15.487Z,2.30
2023-05-17T05:30:42.937Z,3.00
2023-05-17T05:33:11.260Z,3.00
2023-05-17T05:35:38.522Z,2.90
2023-05-17T05:38:05.427Z,2.70
2023-05-17T05:40:33.213Z,2.70
2023-05-17T05:43:00.739Z,3.30
2023-05-17T05:45:27.743Z,2.80
2023-05-17T05:47:57.522Z,3.10
2023-05-17T05:50:24.725Z,3.10
2023-05-17T05:52:58.093Z,2.80
2023-05-17T05:55:34.229Z,2.90
2023-05-17T05:58:01.271Z,3.40
2023-05-17T06:00:28.861Z,2.30
2023-05-17T06:02:56.990Z,2.90
2023-05-17T06:05:23.948Z,2.60
2023-05-17T06:07:50.958Z,2.10
2023-05-17T06:10:17.894Z,2.30
2023-05-17T06:12:45.442Z,3.00
2023-05-17T06:15:12.353Z,2.50
2023-05-17T06:17:41.762Z,2.50
2023-05-17T06:20:09.329Z,2.80
2023-05-17T06:22:36.560Z,2.70
2023-05-17T06:25:04.614Z,2.40
2023-05-17T06:27:35.052Z,2.50
2023-05-17T06:30:05.528Z,2.40
2023-05-17T06:32:34.901Z,2.50
2023-05-17T06:35:02.073Z,2.70
2023-05-17T06:37:29.344Z,3.00
2023-05-17T06:40:15.547Z,2.90
2023-05-17T06:42:44.222Z,3.30
2023-05-17T06:45:12.576Z,2.80
2023-05-17T06:47:39.864Z,2.30
2023-05-17T06:50:08.351Z,2.30
2023-05-17T06:52:35.761Z,1.90
2023-05-17T06:55:03.328Z,2.40
2023-05-17T06:57:30.843Z,2.20
2023-05-17T06:59:57.936Z,2.00
2023-05-17T07:02:24.894Z,2.80
2023-05-17T07:04:51.891Z,2.60
2023-05-17T07:07:19.115Z,2.20
2023-05-17T07:09:46.101Z,2.30
2023-05-17T07:12:13.167Z,2.60
2023-05-17T07:14:40.400Z,2.30
2023-05-17T07:17:07.268Z,2.20
2023-05-17T07:19:34.258Z,2.10
2023-05-17T07:22:01.449Z,2.50
2023-05-17T07:24:28.497Z,2.40
2023-05-17T07:26:55.747Z,2.30
2023-05-17T07:29:22.772Z,1.90
2023-05-17T07:31:51.230Z,1.90
2023-05-17T07:34:18.112Z,2.50
2023-05-17T07:36:45.436Z,1.80
2023-05-17T07:39:12.611Z,1.70
2023-05-17T07:41:39.479Z,3.00
2023-05-17T07:44:06.492Z,1.90
2023-05-17T07:46:33.772Z,2.20
2023-05-17T07:49:03.869Z,2.60
2023-05-17T07:51:31.436Z,2.50
2023-05-17T07:53:58.414Z,1.90
2023-05-17T07:56:25.461Z,2.00
2023-05-17T07:58:57.621Z,2.10
2023-05-17T08:01:24.514Z,2.50
2023-05-17T08:03:52.917Z,2.20
2023-05-17T08:06:19.998Z,2.20
2023-05-17T08:08:47.056Z,2.60
2023-05-17T08:11:14.507Z,2.50
2023-05-17T08:13:41.591Z,2.10
2023-05-17T08:16:14.251Z,2.20
2023-05-17T08:18:42.881Z,2.90
2023-05-17T08:21:10.702Z,2.20
2023-05-17T08:23:37.552Z,2.10
2023-05-17T08:26:04.479Z,2.70
2023-05-17T08:28:31.521Z,2.80
2023-05-17T08:30:58.775Z,2.30
2023-05-17T08:33:27.063Z,2.80
2023-05-17T08:35:54.821Z,2.40
2023-05-17T08:38:21.825Z,2.30
2023-05-17T08:40:55.735Z,2.60
2023-05-17T08:43:25.251Z,2.60
2023-05-17T08:45:57.137Z,2.80
2023-05-17T08:48:25.903Z,2.40
2023-05-17T08:50:53.697Z,2.30
2023-05-17T08:53:21.506Z,2.10
2023-05-17T08:55:49.028Z,2.10
2023-05-17T08:58:18.720Z,2.10
2023-05-17T09:00:46.668Z,2.30
2023-05-17T09:03:15.401Z,2.00
2023-05-17T09:05:42.896Z,1.90
2023-05-17T09:08:13.440Z,1.90
2023-05-17T09:10:47.656Z,1.90
2023-05-17T09:13:15.146Z,2.10
2023-05-17T09:15:47.071Z,2.30
2023-05-17T09:18:16.276Z,2.20
2023-05-17T09:20:49.978Z,2.20
2023-05-17T09:23:18.874Z,1.90
2023-05-17T09:25:47.597Z,2.20
2023-05-17T09:28:15.138Z,1.80
2023-05-17T09:30:42.781Z,2.00
2023-05-17T09:33:10.911Z,2.00
2023-05-17T09:35:38.256Z,1.80
2023-05-17T09:38:07.414Z,1.70
2023-05-17T09:40:42.146Z,1.90
2023-05-17T09:43:10.270Z,1.70
2023-05-17T09:45:37.452Z,1.70
2023-05-17T09:48:17.780Z,1.60
2023-05-17T09:50:45.960Z,1.70
2023-05-17T09:53:25.784Z,1.70
2023-05-17T09:55:54.174Z,1.50
2023-05-17T09:58:21.645Z,1.50
2023-05-17T10:00:54.621Z,1.70
2023-05-17T10:03:22.079Z,1.90
2023-05-17T10:05:51.023Z,1.50
2023-05-17T10:08:19.843Z,1.60
2023-05-17T10:10:46.754Z,1.60
2023-05-17T10:13:13.678Z,1.60
2023-05-17T10:15:40.789Z,1.80
2023-05-17T10:18:08.679Z,1.80
2023-05-17T10:20:36.506Z,1.80
2023-05-17T10:23:05.779Z,2.50
2023-05-17T10:25:33.115Z,2.30
2023-05-17T10:28:00.334Z,2.10
2023-05-17T10:30:28.003Z,1.90
2023-05-17T10:32:55.517Z,2.00
2023-05-17T10:35:22.647Z,2.20
2023-05-17T10:37:50.219Z,2.00
2023-05-17T10:40:17.145Z,2.20
2023-05-17T10:42:54.036Z,2.00
2023-05-17T10:45:23.347Z,2.10
2023-05-17T10:47:54.166Z,1.90
2023-05-17T10:50:25.678Z,2.30
2023-05-17T10:52:53.113Z,1.80
2023-05-17T10:55:24.625Z,1.90
2023-05-17T10:58:10.282Z,2.50
2023-05-17T11:00:43.613Z,2.30
2023-05-17T11:03:17.538Z,2.10
2023-05-17T11:06:06.419Z,2.20
2023-05-17T11:08:34.060Z,1.70
2023-05-17T11:11:16.948Z,2.00
2023-05-17T11:13:52.218Z,1.90
2023-05-17T11:16:34.300Z,1.90
2023-05-17T11:19:08.930Z,1.80
2023-05-17T11:21:36.193Z,1.90
2023-05-17T11:24:03.904Z,1.80
2023-05-17T11:26:37.070Z,1.50
2023-05-17T11:29:08.315Z,1.70
2023-05-17T11:31:36.053Z,2.10
2023-05-17T11:34:03.671Z,1.70
2023-05-17T11:36:31.788Z,1.70
2023-05-17T11:39:15.361Z,1.90
2023-05-17T11:41:52.431Z,1.70
2023-05-17T11:44:28.973Z,1.70
2023-05-17T11:47:06.532Z,2.00
2023-05-17T11:49:37.040Z,1.70
2023-05-17T11:52:07.547Z,1.90
2023-05-17T11:54:37.892Z,2.10
2023-05-17T11:57:05.029Z,2.10
2023-05-17T11:59:39.574Z,2.10
2023-05-17T12:02:07.434Z,1.70
2023-05-17T12:04:36.868Z,1.90
2023-05-17T12:07:03.895Z,2.00
2023-05-17T12:09:31.907Z,1.90
2023-05-17T12:12:04.242Z,1.90
2023-05-17T12:14:31.418Z,1.80
2023-05-17T12:17:00.829Z,1.70
2023-05-17T12:19:29.369Z,2.20
2023-05-17T12:22:13.273Z,1.90
2023-05-17T12:24:41.711Z,1.80
2023-05-17T12:27:08.888Z,1.90
2023-05-17T12:29:36.302Z,1.90
2023-05-17T12:32:03.619Z,1.60
2023-05-17T12:34:30.613Z,1.80
2023-05-17T12:36:57.537Z,1.90
2023-05-17T12:39:24.554Z,2.40
2023-05-17T12:41:51.924Z,1.90
2023-05-17T12:44:22.140Z,1.70
2023-05-17T12:46:53.450Z,2.10
2023-05-17T12:49:23.309Z,1.80
2023-05-17T12:51:50.351Z,1.90
2023-05-17T12:54:23.521Z,1.90
2023-05-17T12:56:50.950Z,1.60
2023-05-17T12:59:18.419Z,1.80
2023-05-17T13:01:50.119Z,1.90
2023-05-17T13:04:18.066Z,2.10
2023-05-17T13:06:52.107Z,2.20
2023-05-17T13:09:20.617Z,2.00
2023-05-17T13:11:56.074Z,2.20
2023-05-17T13:14:45.694Z,2.00
2023-05-17T13:17:23.501Z,2.30
2023-05-17T13:19:50.557Z,2.10
2023-05-17T13:22:18.026Z,2.60
2023-05-17T13:24:45.147Z,1.90
2023-05-17T13:27:17.338Z,2.10
2023-05-17T13:29:45.676Z,2.30
2023-05-17T13:32:13.161Z,2.30
2023-05-17T13:34:40.711Z,2.10
2023-05-17T13:37:11.501Z,1.80
2023-05-17T13:39:40.576Z,2.40
2023-05-17T13:42:07.778Z,2.10
2023-05-17T13:44:34.834Z,2.20
2023-05-17T13:47:01.697Z,1.80
2023-05-17T13:49:28.975Z,2.10
2023-05-17T13:51:56.202Z,2.00
2023-05-17T13:54:23.597Z,2.40
2023-05-17T13:56:50.663Z,2.10
2023-05-17T13:59:18.171Z,2.00
2023-05-17T14:01:45.311Z,2.10
2023-05-17T14:04:12.352Z,7.20
2023-05-17T14:06:41.006Z,3.40
2023-05-17T14:09:07.999Z,2.60
2023-05-17T14:11:35.114Z,2.80
2023-05-17T14:14:03.612Z,2.50
2023-05-17T14:16:30.646Z,2.30
2023-05-17T14:18:57.667Z,3.30
2023-05-17T14:21:24.828Z,2.80
2023-05-17T14:23:52.022Z,2.70
2023-05-17T14:26:18.922Z,2.50
2023-05-17T14:28:51.371Z,3.00
2023-05-17T14:31:18.217Z,2.90
2023-05-17T14:33:45.183Z,2.70
2023-05-17T14:36:14.032Z,2.70
2023-05-17T14:38:41.476Z,2.40
2023-05-17T14:41:08.474Z,2.90
2023-05-17T14:43:36.171Z,2.60
2023-05-17T14:46:03.462Z,2.50
2023-05-17T14:48:36.434Z,2.10
2023-05-17T14:51:03.603Z,2.00
2023-05-17T14:53:31.514Z,2.50
2023-05-17T14:55:58.717Z,2.40
2023-05-17T14:58:25.994Z,2.70
2023-05-17T15:01:05.222Z,2.30
2023-05-17T15:03:34.468Z,2.00
2023-05-17T15:06:03.388Z,2.70
2023-05-17T15:08:35.464Z,2.30
2023-05-17T15:11:02.457Z,2.50
2023-05-17T15:13:29.850Z,2.10
2023-05-17T15:15:56.699Z,2.20
2023-05-17T15:18:23.688Z,2.60
2023-05-17T15:20:51.309Z,1.90
2023-05-17T15:23:23.433Z,1.70
2023-05-17T15:25:50.753Z,2.10
2023-05-17T15:28:20.300Z,2.10
2023-05-17T15:30:47.326Z,1.60
2023-05-17T15:33:14.621Z,1.90
2023-05-17T15:35:42.763Z,2.30
2023-05-17T15:38:10.479Z,1.80
2023-05-17T15:40:38.172Z,2.20
2023-05-17T15:43:05.027Z,1.80
2023-05-17T15:45:32.341Z,2.70
2023-05-17T15:48:01.378Z,2.80
2023-05-17T15:50:33.650Z,2.40
2023-05-17T15:53:02.447Z,2.30
2023-05-17T15:55:29.759Z,2.50
2023-05-17T15:57:56.878Z,2.30
2023-05-17T16:00:23.988Z,2.20
2023-05-17T16:02:51.156Z,2.60
2023-05-17T16:05:18.176Z,2.10
2023-05-17T16:07:45.921Z,2.20
2023-05-17T16:10:18.140Z,2.70
2023-05-17T16:12:46.975Z,3.00
2023-05-17T16:15:13.962Z,2.20
2023-05-17T16:17:41.208Z,3.30
2023-05-17T16:20:08.671Z,2.70
2023-05-17T16:22:36.741Z,2.80
2023-05-17T16:25:05.751Z,3.00
2023-05-17T16:27:32.827Z,3.00
2023-05-17T16:29:59.697Z,3.00
2023-05-17T16:32:26.628Z,2.60
2023-05-17T16:34:53.556Z,2.40
2023-05-17T16:37:21.110Z,3.20
2023-05-17T16:39:48.097Z,2.50
2023-05-17T16:42:15.172Z,2.40
2023-05-17T16:44:42.087Z,2.60
2023-05-17T16:47:09.218Z,2.80
2023-05-17T16:49:36.792Z,2.90
2023-05-17T16:52:03.946Z,3.30
2023-05-17T16:54:33.278Z,2.40
2023-05-17T16:57:01.605Z,2.80
2023-05-17T16:59:28.829Z,3.20
2023-05-17T17:01:56.066Z,2.70
2023-05-17T17:04:23.392Z,3.10
2023-05-17T17:06:51.105Z,2.40
2023-05-17T17:09:28.400Z,3.00
2023-05-17T17:11:55.633Z,2.60
2023-05-17T17:14:24.768Z,3.10
2023-05-17T17:16:51.778Z,2.80
2023-05-17T17:19:19.041Z,2.70
2023-05-17T17:21:46.599Z,3.00
2023-05-17T17:24:13.563Z,2.90
2023-05-17T17:26:40.594Z,2.60
2023-05-17T17:29:07.913Z,2.50
2023-05-17T17:31:35.148Z,3.20
2023-05-17T17:34:02.229Z,2.80
2023-05-17T17:36:29.928Z,3.30
2023-05-17T17:38:56.859Z,3.20
2023-05-17T17:41:23.949Z,3.30
2023-05-17T17:43:50.877Z,3.60
2023-05-17T17:46:18.183Z,3.20
2023-05-17T17:48:45.161Z,2.80
2023-05-17T17:51:11.941Z,2.90
2023-05-17T17:53:40.844Z,3.10
2023-05-17T17:56:08.180Z,3.20
2023-05-17T17:58:36.149Z,3.30
2023-05-17T18:01:08.298Z,3.30
2023-05-17T18:03:35.484Z,3.90
2023-05-17T18:06:04.118Z,4.00
2023-05-17T18:08:31.567Z,3.90
2023-05-17T18:10:58.460Z,4.00
2023-05-17T18:13:25.925Z,3.70
2023-05-17T18:15:54.247Z,3.70
2023-05-17T18:18:26.480Z,4.10
2023-05-17T18:20:53.367Z,3.00
2023-05-17T18:23:21.264Z,4.20
2023-05-17T18:25:48.609Z,3.60
2023-05-17T18:28:18.241Z,3.50
2023-05-17T18:30:52.387Z,4.10
2023-05-17T18:33:19.356Z,3.40
2023-05-17T18:35:46.465Z,3.90
2023-05-17T18:38:13.441Z,3.80
2023-05-17T18:40:40.428Z,3.50
2023-05-17T18:43:07.464Z,4.00
2023-05-17T18:45:35.979Z,3.80
2023-05-17T18:48:03.406Z,3.70
2023-05-17T18:50:32.047Z,3.30
2023-05-17T18:53:01.957Z,3.20
2023-05-17T18:55:34.164Z,4.30
2023-05-17T18:58:01.203Z,4.40
2023-05-17T19:00:28.398Z,4.40
2023-05-17T19:02:55.716Z,3.90
2023-05-17T19:05:23.169Z,4.10
2023-05-17T19:07:50.153Z,4.10
2023-05-17T19:10:22.303Z,4.20
2023-05-17T19:12:49.383Z,4.10
2023-05-17T19:15:16.362Z,3.70
2023-05-17T19:17:43.804Z,3.90
2023-05-17T19:20:11.351Z,3.80
2023-05-17T19:22:38.471Z,3.10
2023-05-17T19:25:06.503Z,3.70
2023-05-17T19:27:33.964Z,4.30
2023-05-17T19:30:01.366Z,3.90
2023-05-17T19:32:32.435Z,3.60
2023-05-17T19:35:00.731Z,4.00
2023-05-17T19:37:28.076Z,4.60
2023-05-17T19:39:55.466Z,3.60
2023-05-17T19:42:23.091Z,3.60
2023-05-17T19:44:50.187Z,3.70
2023-05-17T19:47:17.175Z,3.70
2023-05-17T19:49:44.289Z,4.60
2023-05-17T19:52:11.815Z,4.30
2023-05-17T19:54:38.830Z,5.40
2023-05-17T19:57:06.021Z,4.80
2023-05-17T19:59:33.659Z,4.90
2023-05-17T20:02:00.934Z,4.90
2023-05-17T20:04:27.980Z,4.60
2023-05-17T20:06:54.931Z,4.70
2023-05-17T20:09:24.594Z,4.70
2023-05-17T20:11:54.269Z,4.20
2023-05-17T20:14:27.403Z,4.70
2023-05-17T20:16:54.456Z,4.80
2023-05-17T20:19:21.677Z,5.20
2023-05-17T20:21:48.993Z,4.50
2023-05-17T20:24:15.946Z,4.60
2023-05-17T20:26:45.951Z,4.90
2023-05-17T20:29:12.976Z,4.40
2023-05-17T20:31:40.275Z,4.50
2023-05-17T20:34:07.673Z,4.90
2023-05-17T20:36:40.469Z,5.40
2023-05-17T20:39:07.485Z,4.90
2023-05-17T20:41:34.674Z,5.60
2023-05-17T20:44:01.882Z,5.10
2023-05-17T20:46:29.432Z,5.10
2023-05-17T20:48:57.629Z,4.90
2023-05-17T20:51:26.505Z,5.40
2023-05-17T20:53:53.832Z,5.50
2023-05-17T20:56:20.681Z,5.30
2023-05-17T20:58:48.074Z,5.60
2023-05-17T21:01:14.986Z,5.70
2023-05-17T21:03:42.696Z,4.90
2023-05-17T21:06:10.294Z,5.30
2023-05-17T21:08:37.881Z,4.90
2023-05-17T21:11:05.138Z,5.30
2023-05-17T21:13:32.396Z,5.00
2023-05-17T21:15:59.333Z,5.60
2023-05-17T21:18:26.215Z,5.60
2023-05-17T21:20:59.608Z,4.90
2023-05-17T21:23:26.507Z,6.00
2023-05-17T21:25:58.683Z,5.00
2023-05-17T21:28:25.683Z,6.70
2023-05-17T21:30:52.735Z,9.00
2023-05-17T21:33:19.782Z,7.60
2023-05-17T21:35:46.753Z,7.20
2023-05-17T21:38:18.916Z,6.30
2023-05-17T21:40:45.906Z,6.30
2023-05-17T21:43:12.886Z,5.80
2023-05-17T21:45:41.275Z,5.60
2023-05-17T21:48:08.200Z,6.00
2023-05-17T21:50:35.390Z,6.40
2023-05-17T21:53:02.257Z,5.10
2023-05-17T21:55:36.564Z,5.30
2023-05-17T21:58:15.766Z,5.20
2023-05-17T22:00:43.026Z,5.70
2023-05-17T22:03:10.243Z,5.60
2023-05-17T22:05:43.812Z,5.60
2023-05-17T22:08:10.862Z,5.20
2023-05-17T22:10:40.020Z,6.20
2023-05-17T22:13:11.609Z,6.40
2023-05-17T22:15:38.554Z,5.80
2023-05-17T22:18:05.613Z,5.60
2023-05-17T22:20:32.971Z,5.30
2023-05-17T22:23:00.308Z,5.70
2023-05-17T22:25:27.155Z,7.20
2023-05-17T22:28:01.712Z,6.80
2023-05-17T22:30:34.129Z,6.10
2023-05-17T22:33:02.564Z,7.20
2023-05-17T22:35:29.613Z,6.70
2023-05-17T22:38:02.399Z,6.50
2023-05-17T22:40:29.652Z,6.50
2023-05-17T22:42:58.269Z,6.30
2023-05-17T22:45:32.428Z,6.20
2023-05-17T22:48:02.266Z,6.10
2023-05-17T22:50:30.106Z,6.00
2023-05-17T22:53:00.615Z,5.20
2023-05-17T22:55:38.634Z,6.00
2023-05-17T22:58:05.609Z,6.40
2023-05-17T23:00:32.936Z,6.80
2023-05-17T23:02:59.859Z,7.00
2023-05-17T23:05:26.899Z,7.00
2023-05-17T23:07:54.964Z,6.20
2023-05-17T23:10:21.862Z,7.90
2023-05-17T23:12:50.220Z,7.20
2023-05-17T23:15:19.147Z,7.70
2023-05-17T23:17:46.810Z,7.10
2023-05-17T23:20:13.914Z,6.20
2023-05-17T23:22:40.881Z,6.90
2023-05-17T23:25:08.637Z,6.60
2023-05-17T23:27:35.654Z,6.60
2023-05-17T23:30:03.966Z,7.00
2023-05-17T23:32:34.433Z,6.50
2023-05-17T23:35:04.770Z,6.60
2023-05-17T23:37:35.566Z,6.30
2023-05-17T23:40:11.623Z,6.30
2023-05-17T23:42:39.418Z,6.50
2023-05-17T23:45:07.330Z,6.00
2023-05-17T23:47:34.574Z,6.20
2023-05-17T23:50:02.766Z,6.30
2023-05-17T23:52:31.852Z,6.00
2023-05-17T23:54:58.783Z,5.80
2023-05-17T23:57:25.806Z,6.00
2023-05-17T23:59:52.700Z,6.40
